Time;durP1;ratioP1;P1;durP2;ratioP2;P2;SDS_P1;SDS_P2;PMS_P1;PMS_P2;Temp;Humidity;BMP_temperature;BMP_pressure;BME280_temperature;BME280_humidity;BME280_pressure;Samples;Min_cycle;Max_cycle;Signal;HPM_P1;HPM_P2
2022/07/13 00:00:16;;;;;;;3.30;2.42;;;14.90;99.90;;;13.95;100.00;101604.03;4924236;28;20041;-77
2022/07/13 00:02:44;;;;;;;5.28;2.78;;;14.90;99.90;;;13.97;100.00;101603.97;4959843;28;20096;-76
2022/07/13 00:05:10;;;;;;;8.02;2.67;;;14.90;99.90;;;14.04;100.00;101602.75;4943818;28;20030;-77
2022/07/13 00:07:36;;;;;;;6.47;2.50;;;15.00;99.90;;;14.09;100.00;101609.56;4939874;28;20045;-77
2022/07/13 00:10:04;;;;;;;4.68;3.00;;;15.00;99.90;;;14.14;100.00;101604.88;4957981;28;20428;-77
2022/07/13 00:12:30;;;;;;;5.80;2.95;;;15.10;99.90;;;14.20;100.00;101606.41;4944411;28;20042;-77
2022/07/13 00:14:58;;;;;;;5.57;2.70;;;15.20;99.90;;;14.27;100.00;101593.72;4973325;28;20029;-77
2022/07/13 00:17:24;;;;;;;6.50;2.88;;;15.20;99.90;;;14.36;100.00;101607.41;4992675;28;20033;-77
2022/07/13 00:19:49;;;;;;;7.55;3.00;;;15.30;99.90;;;14.47;100.00;101603.34;5005353;28;20030;-77
2022/07/13 00:22:16;;;;;;;7.10;3.50;;;15.40;99.90;;;14.57;100.00;101612.59;4966168;28;21009;-77
2022/07/13 00:24:42;;;;;;;5.38;3.00;;;15.40;99.90;;;14.65;100.00;101610.44;4948083;28;20081;-77
2022/07/13 00:27:07;;;;;;;4.90;3.20;;;15.50;99.90;;;14.73;100.00;101607.41;4941124;28;20030;-77
2022/07/13 00:29:33;;;;;;;;;;;15.60;99.90;;;14.77;100.00;101606.28;4968231;28;20024;-77
2022/07/13 00:32:01;;;;;;;6.00;3.25;;;15.70;99.90;;;14.83;100.00;101603.34;4990025;28;20404;-77
2022/07/13 00:34:30;;;;;;;10.20;3.90;;;15.60;99.90;;;14.91;100.00;101598.50;4953787;28;20039;-77
2022/07/13 00:36:56;;;;;;;4.82;3.13;;;15.80;99.90;;;15.00;100.00;101597.19;4959103;28;20034;-77
2022/07/13 00:39:22;;;;;;;6.63;3.70;;;15.80;99.90;;;15.08;100.00;101595.00;4941426;28;20034;-77
2022/07/13 00:41:49;;;;;;;6.93;3.50;;;15.90;99.90;;;15.14;100.00;101593.81;4975241;28;20169;-77
2022/07/13 00:44:18;;;;;;;5.10;3.28;;;16.00;99.90;;;15.20;100.00;101588.19;4962473;28;20018;-77
2022/07/13 00:46:54;;;;;;;7.30;3.83;;;16.00;99.90;;;15.26;100.00;101582.56;4972595;28;20030;-77
2022/07/13 00:49:24;;;;;;;5.65;3.70;;;16.10;99.90;;;15.32;100.00;101586.69;4966933;28;20044;-76
2022/07/13 00:51:50;;;;;;;8.15;3.85;;;16.10;99.90;;;15.37;100.00;101579.34;4961152;28;20033;-76
2022/07/13 00:54:28;;;;;;;7.35;3.80;;;16.20;99.90;;;15.43;100.00;101572.84;4917619;28;20049;-77
2022/07/13 00:56:54;;;;;;;5.72;3.55;;;16.30;99.90;;;15.47;100.00;101567.31;4963594;28;20059;-77
2022/07/13 00:59:21;;;;;;;7.05;4.03;;;16.30;99.90;;;15.49;100.00;101576.03;4959695;28;20113;-77
2022/07/13 01:01:47;;;;;;;8.20;3.70;;;16.30;99.90;;;15.52;100.00;101575.00;4976539;28;20058;-77
2022/07/13 01:04:13;;;;;;;7.00;3.35;;;16.30;99.90;;;15.54;100.00;101566.03;4958370;28;20453;-77
2022/07/13 01:06:41;;;;;;;;;;;16.40;99.90;;;15.57;100.00;101565.00;4971514;28;20079;-76
2022/07/13 01:09:07;;;;;;;5.60;3.85;;;16.40;99.90;;;15.58;100.00;101574.69;4940770;28;20336;-76
2022/07/13 01:11:34;;;;;;;10.00;3.67;;;16.40;99.90;;;15.61;100.00;101569.19;4949911;28;20038;-77
2022/07/13 01:14:00;;;;;;;4.88;3.30;;;16.50;99.90;;;15.65;100.00;101565.44;4941309;28;20076;-77
2022/07/13 01:16:27;;;;;;;5.88;3.05;;;16.50;99.90;;;15.69;100.00;101566.97;4970853;28;20030;-77
2022/07/13 01:18:53;;;;;;;4.95;3.22;;;16.50;99.90;;;15.73;100.00;101568.56;4962100;28;20026;-77
2022/07/13 01:21:26;;;;;;;6.32;2.95;;;16.50;99.90;;;15.77;100.00;101561.31;4970890;28;20033;-77
2022/07/13 01:23:52;;;;;;;3.90;3.10;;;16.60;99.90;;;15.81;100.00;101561.97;4964208;28;20024;-77
2022/07/13 01:26:18;;;;;;;8.35;2.92;;;16.60;99.90;;;15.83;100.00;101570.72;4941331;28;20654;-77
2022/07/13 01:28:44;;;;;;;5.22;2.72;;;16.70;99.90;;;15.87;100.00;101564.28;4974331;28;20025;-77
2022/07/13 01:31:10;;;;;;;4.80;3.00;;;16.70;99.90;;;15.89;100.00;101565.06;4959564;28;21446;-77
2022/07/13 01:33:38;;;;;;;;;;;16.70;99.90;;;15.89;100.00;101559.75;4963308;28;20046;-77
2022/07/13 01:36:04;;;;;;;6.55;2.75;;;16.70;99.90;;;15.90;100.00;101556.16;4938509;28;19917;-77
2022/07/13 01:38:30;;;;;;;4.18;2.60;;;16.70;99.90;;;15.94;100.00;101555.06;4962635;28;20042;-77
2022/07/13 01:40:56;;;;;;;4.20;2.80;;;16.70;99.90;;;15.99;100.00;101553.00;4934134;28;20018;-77
2022/07/13 01:43:29;;;;;;;;;;;16.80;99.90;;;15.99;100.00;101547.69;4963583;28;20053;-77
2022/07/13 01:45:55;;;;;;;7.43;2.60;;;16.80;99.90;;;15.99;100.00;101540.56;4980499;28;19949;-76
2022/07/13 01:48:21;;;;;;;6.80;2.80;;;16.80;99.90;;;16.03;100.00;101540.41;4917709;28;20503;-76
2022/07/13 01:50:47;;;;;;;5.18;2.72;;;16.90;99.90;;;16.05;100.00;101542.03;4980356;28;20048;-76
2022/07/13 01:53:13;;;;;;;3.80;2.60;;;16.90;99.90;;;16.08;100.00;101544.50;4954424;28;20514;-77
2022/07/13 01:55:39;;;;;;;5.68;2.15;;;16.90;99.90;;;16.10;100.00;101544.41;4995550;28;20033;-77
2022/07/13 01:58:05;;;;;;;6.40;2.30;;;16.90;99.90;;;16.13;100.00;101546.88;4964519;28;20554;-77
2022/07/13 02:00:30;;;;;;;7.07;2.40;;;16.90;99.90;;;16.16;100.00;101538.75;4956774;28;20070;-77
2022/07/13 02:02:58;;;;;;;;;;;16.90;99.90;;;16.15;100.00;101539.69;4919143;28;20037;-77
2022/07/13 02:05:26;;;;;;;5.75;2.10;;;16.90;99.90;;;16.17;100.00;101541.31;4965275;28;19918;-77
2022/07/13 02:07:53;;;;;;;4.72;2.10;;;17.00;99.90;;;16.22;100.00;101540.19;4958674;28;20049;-77
2022/07/13 02:10:19;;;;;;;5.18;2.42;;;17.00;99.90;;;16.23;100.00;101541.91;4928591;28;20022;-77
2022/07/13 02:12:45;;;;;;;2.85;2.28;;;17.00;99.90;;;16.26;100.00;101539.06;4960985;28;20045;-77
2022/07/13 02:15:11;;;;;;;3.63;2.00;;;17.00;99.90;;;16.26;100.00;101533.75;4944205;28;20559;-77
2022/07/13 02:17:37;;;;;;;4.70;2.40;;;17.00;99.90;;;16.27;100.00;101528.34;4995879;28;20410;-76
2022/07/13 02:20:04;;;;;;;3.33;2.45;;;17.10;99.90;;;16.28;100.00;101522.09;4978246;28;20030;-76
2022/07/13 02:22:46;;;;;;;4.88;2.70;;;17.10;99.90;;;16.30;100.00;101522.84;4968913;28;20026;-76
2022/07/13 02:25:13;;;;;;;4.80;2.50;;;17.10;99.90;;;16.32;100.00;101520.13;4961913;28;20034;-76
2022/07/13 02:27:40;;;;;;;5.63;2.25;;;17.10;99.90;;;16.34;100.00;101523.53;4966193;28;20045;-76
2022/07/13 02:30:08;;;;;;;6.05;2.25;;;17.10;99.90;;;16.35;100.00;101531.44;4974523;28;20026;-76
2022/07/13 02:32:34;;;;;;;8.48;2.65;;;17.10;99.90;;;16.35;100.00;101535.91;4969508;28;20042;-76
2022/07/13 02:34:59;;;;;;;2.97;2.33;;;17.10;99.90;;;16.33;100.00;101541.31;4926443;28;20478;-76
2022/07/13 02:37:25;;;;;;;4.38;2.15;;;17.10;99.90;;;16.34;100.00;101531.50;4969285;28;20034;-76
2022/07/13 02:39:53;;;;;;;4.97;2.47;;;17.10;99.90;;;16.32;100.00;101528.94;4953480;28;20018;-75
2022/07/13 02:42:19;;;;;;;7.03;2.38;;;17.10;99.90;;;16.31;100.00;101527.25;4945807;28;20018;-76
2022/07/13 02:44:45;;;;;;;5.50;2.40;;;17.10;99.90;;;16.31;100.00;101523.72;4934987;28;20173;-75
2022/07/13 02:47:11;;;;;;;6.78;2.20;;;17.10;99.90;;;16.31;100.00;101518.41;4980659;28;20053;-75
2022/07/13 02:49:39;;;;;;;6.00;2.17;;;17.10;99.90;;;16.31;100.00;101513.97;4971134;28;20022;-75
2022/07/13 02:52:05;;;;;;;3.90;1.98;;;17.10;99.90;;;16.34;100.00;101507.59;4973848;28;21027;-76
2022/07/13 02:54:31;;;;;;;3.75;2.00;;;17.10;99.90;;;16.35;100.00;101504.00;4980763;28;20050;-76
2022/07/13 02:56:57;;;;;;;;;;;17.20;99.90;;;16.34;100.00;101510.25;4970381;28;20031;-76
2022/07/13 02:59:23;;;;;;;4.57;2.30;;;17.10;99.90;;;16.34;100.00;101507.59;4942818;28;19913;-75
2022/07/13 03:01:48;;;;;;;5.38;2.50;;;17.20;99.90;;;16.36;100.00;101505.72;4955249;28;20026;-76
2022/07/13 03:04:14;;;;;;;;;;;17.20;99.90;;;16.33;100.00;101506.75;4946412;28;20032;-76
2022/07/13 03:06:43;;;;;;;4.10;2.47;;;17.10;99.90;;;16.35;100.00;101509.31;4947965;28;19918;-75
2022/07/13 03:09:09;;;;;;;8.15;2.40;;;;;;;16.37;100.00;101502.97;4909988;28;20022;-76
2022/07/13 03:11:35;;;;;;;3.65;2.38;;;17.20;99.90;;;16.40;100.00;101508.09;4945205;28;20494;-76
2022/07/13 03:14:02;;;;;;;5.20;2.63;;;17.20;99.90;;;16.44;100.00;101511.44;4934983;28;20042;-76
2022/07/13 03:16:28;;;;;;;3.70;2.83;;;17.20;99.90;;;16.47;100.00;101507.75;4996505;28;20027;-76
2022/07/13 03:18:54;;;;;;;8.30;2.70;;;17.30;99.90;;;16.50;100.00;101497.78;4959567;28;20433;-76
2022/07/13 03:21:24;;;;;;;7.45;2.60;;;17.30;99.90;;;16.53;100.00;101502.91;4919413;28;20030;-76
2022/07/13 03:23:50;;;;;;;7.20;2.67;;;17.30;99.90;;;16.56;100.00;101497.41;4941153;28;20034;-76
2022/07/13 03:26:16;;;;;;;5.75;2.72;;;17.30;99.90;;;16.59;100.00;101502.56;4936313;28;20054;-76
2022/07/13 03:28:42;;;;;;;;;;;17.30;99.90;;;16.60;100.00;101504.25;4907879;28;20031;-76
2022/07/13 03:31:07;;;;;;;6.18;2.50;;;17.40;99.90;;;16.60;100.00;101498.94;4979296;28;19910;-76
2022/07/13 03:33:33;;;;;;;;;;;17.40;99.90;;;16.61;100.00;101499.81;4939349;28;20088;-76
2022/07/13 03:35:59;;;;;;;4.47;2.40;;;17.40;99.90;;;16.64;100.00;101496.94;4940149;28;19914;-75
2022/07/13 03:38:32;;;;;;;2.97;2.35;;;17.40;99.90;;;16.68;100.00;101494.97;4950915;28;20497;-76
2022/07/13 03:40:58;;;;;;;5.35;2.33;;;17.40;99.90;;;16.71;100.00;101495.63;4947771;28;20034;-76
2022/07/13 03:43:24;;;;;;;5.47;2.83;;;17.50;99.90;;;16.75;100.00;101481.19;4956631;28;20030;-76
2022/07/13 03:45:50;;;;;;;;;;;17.50;99.90;;;16.77;100.00;101481.13;4935452;28;20030;-76
2022/07/13 03:48:18;;;;;;;4.80;2.47;;;17.60;99.90;;;16.76;100.00;101479.38;4919376;28;21048;-76
2022/07/13 03:50:48;;;;;;;4.20;2.20;;;17.60;99.90;;;16.81;100.00;101464.91;4991112;28;20100;-76
2022/07/13 03:53:15;;;;;;;5.38;2.17;;;17.60;99.90;;;16.86;100.00;101461.97;4977894;28;20054;-76
2022/07/13 03:55:43;;;;;;;5.78;2.65;;;17.70;99.90;;;16.90;100.00;101466.16;4928884;28;20057;-76
2022/07/13 03:58:10;;;;;;;5.05;2.65;;;17.70;99.90;;;16.95;100.00;101453.44;4967857;28;20027;-76
2022/07/13 04:00:37;;;;;;;8.10;2.70;;;17.70;99.90;;;17.01;100.00;101471.66;4951598;28;20158;-76
2022/07/13 04:03:04;;;;;;;5.43;2.40;;;17.80;99.90;;;17.06;100.00;101478.50;4943021;28;20045;-76
2022/07/13 04:05:30;;;;;;;4.40;2.47;;;17.80;99.90;;;17.07;100.00;101482.88;4949492;28;20081;-76
2022/07/13 04:07:56;;;;;;;3.63;2.70;;;17.80;99.90;;;17.09;100.00;101491.63;4968217;28;20121;-76
2022/07/13 04:10:22;;;;;;;5.43;2.35;;;17.80;99.90;;;17.08;100.00;101481.94;4979820;28;20040;-77
2022/07/13 04:12:51;;;;;;;4.28;2.53;;;17.90;99.90;;;17.07;100.00;101485.56;4932809;28;20046;-76
2022/07/13 04:15:17;;;;;;;4.20;2.85;;;17.80;99.90;;;17.08;100.00;101471.28;4968714;28;20026;-76
2022/07/13 04:17:43;;;;;;;5.07;2.67;;;17.90;99.90;;;17.09;100.00;101478.31;4972805;28;20119;-75
2022/07/13 04:20:10;;;;;;;5.38;2.60;;;17.80;99.90;;;17.09;100.00;101470.34;4968566;28;20044;-76
2022/07/13 04:22:37;;;;;;;10.55;2.50;;;17.80;99.90;;;17.10;100.00;101477.38;4961255;28;20076;-76
2022/07/13 04:25:04;;;;;;;2.50;2.30;;;17.90;99.90;;;17.12;100.00;101472.81;4985797;28;20121;-76
2022/07/13 04:27:31;;;;;;;3.28;2.35;;;17.90;99.90;;;17.15;100.00;101457.50;4967471;28;20041;-76
2022/07/13 04:29:57;;;;;;;5.57;2.42;;;17.90;99.90;;;17.21;100.00;101466.91;4931513;28;20117;-76
2022/07/13 04:32:23;;;;;;;5.93;2.20;;;18.00;99.90;;;17.24;100.00;101456.06;4946260;28;20240;-76
2022/07/13 04:34:49;;;;;;;5.72;2.10;;;18.00;99.90;;;17.30;100.00;101461.03;4953743;28;20566;-76
2022/07/13 04:37:15;;;;;;;4.35;1.95;;;18.10;99.90;;;17.35;100.00;101461.56;4961876;28;20061;-76
2022/07/13 04:39:42;;;;;;;3.08;2.47;;;18.10;99.90;;;17.41;100.00;101463.84;4964861;28;20034;-76
2022/07/13 04:42:13;;;;;;;6.03;2.08;;;18.10;99.90;;;17.47;100.00;101467.06;4935176;28;20069;-76
2022/07/13 04:44:39;;;;;;;3.67;2.30;;;18.20;99.90;;;17.49;100.00;101460.69;4955439;28;20088;-77
2022/07/13 04:47:05;;;;;;;4.28;2.33;;;18.20;99.90;;;17.54;100.00;101465.72;4928779;28;20058;-76
2022/07/13 04:49:30;;;;;;;;;;;18.30;99.90;;;17.55;100.00;101470.09;4947122;28;20470;-76
2022/07/13 04:51:56;;;;;;;2.80;2.17;;;18.30;99.90;;;17.57;100.00;101470.84;4994595;28;20497;-76
2022/07/13 04:54:22;;;;;;;2.90;2.10;;;18.30;99.90;;;17.61;100.00;101467.88;4923213;28;20034;-76
2022/07/13 04:56:53;;;;;;;3.67;1.98;;;18.40;99.90;;;17.67;100.00;101469.31;4965817;28;20557;-76
2022/07/13 04:59:19;;;;;;;4.65;2.00;;;18.40;99.90;;;17.76;100.00;101471.38;4944521;28;20492;-76
2022/07/13 05:01:45;;;;;;;5.03;2.22;;;18.50;99.90;;;17.85;100.00;101475.28;4938325;28;20103;-76
2022/07/13 05:04:10;;;;;;;3.03;1.80;;;18.60;99.90;;;17.98;100.00;101476.16;4943652;28;20022;-76
2022/07/13 05:06:37;;;;;;;5.47;2.03;;;18.70;99.90;;;18.10;100.00;101474.53;4902795;28;20089;-76
2022/07/13 05:09:03;;;;;;;3.42;1.85;;;18.80;99.90;;;18.23;99.72;101479.91;4954434;28;20139;-76
2022/07/13 05:11:34;;;;;;;2.92;1.98;;;18.90;99.90;;;18.37;99.10;101476.28;4932465;28;20027;-76
2022/07/13 05:14:00;;;;;;;5.22;2.20;;;19.00;99.90;;;18.49;98.29;101478.13;4914389;28;20050;-76
2022/07/13 05:16:26;;;;;;;3.65;1.95;;;19.20;99.90;;;18.60;97.72;101478.25;4949084;28;20029;-75
2022/07/13 05:18:52;;;;;;;4.75;1.95;;;19.30;99.90;;;18.70;96.90;101475.78;4944404;28;20028;-77
2022/07/13 05:21:18;;;;;;;3.40;1.63;;;19.40;99.90;;;18.79;96.12;101474.31;4940761;28;20056;-77
2022/07/13 05:23:49;;;;;;;3.80;2.00;;;19.40;99.90;;;18.91;95.87;101475.31;4940450;28;20029;-76
2022/07/13 05:26:15;;;;;;;3.15;1.95;;;19.60;99.90;;;19.01;94.89;101474.53;4941315;28;20053;-76
2022/07/13 05:28:42;;;;;;;2.42;1.90;;;19.60;99.90;;;19.13;94.57;101471.97;4914336;28;20517;-77
2022/07/13 05:31:08;;;;;;;4.68;1.90;;;19.80;99.90;;;19.23;93.91;101473.03;4961067;28;20042;-76
2022/07/13 05:33:34;;;;;;;2.40;1.90;;;19.90;99.90;;;19.32;93.31;101480.38;4970049;28;20061;-76
2022/07/13 05:36:06;;;;;;;5.07;1.90;;;19.90;99.90;;;19.40;92.82;101471.81;4953483;28;20078;-76
2022/07/13 05:38:32;;;;;;;3.08;1.90;;;20.00;99.90;;;19.46;92.42;101476.72;4904519;28;20035;-76
2022/07/13 05:40:58;;;;;;;4.22;1.80;;;20.10;99.90;;;19.52;92.06;101462.06;4911991;28;20029;-76
2022/07/13 05:43:24;;;;;;;;;;;20.10;99.90;;;19.60;91.92;101468.53;4921454;28;20065;-76
2022/07/13 05:45:51;;;;;;;2.22;1.90;;;20.20;99.90;;;19.67;91.14;101464.47;4953729;28;20028;-77
2022/07/13 05:48:24;;;;;;;5.63;2.00;;;20.30;99.90;;;19.77;90.36;101458.47;4956248;28;20018;-77
2022/07/13 05:50:51;;;;;;;2.63;1.90;;;20.40;99.90;;;19.88;89.61;101464.72;4968910;28;20034;-77
2022/07/13 05:53:19;;;;;;;5.13;1.90;;;20.50;99.90;;;19.98;88.95;101453.38;4946092;28;20038;-75
2022/07/13 05:55:50;;;;;;;4.05;1.95;;;20.60;99.90;;;20.06;87.81;101445.59;4946244;28;20056;-76
2022/07/13 05:58:16;;;;;;;2.88;1.90;;;20.60;99.90;;;20.17;87.03;101459.03;4922916;28;20050;-76
2022/07/13 06:00:42;;;;;;;5.00;1.80;;;20.70;99.90;;;20.25;86.04;101459.28;4961356;28;20026;-76
2022/07/13 06:03:07;;;;;;;3.42;1.77;;;20.80;99.90;;;20.33;85.98;101448.03;4997863;28;22306;-76
2022/07/13 06:05:33;;;;;;;4.13;1.85;;;20.90;99.90;;;20.48;85.45;101452.19;4921611;28;20480;-76
2022/07/13 06:07:59;;;;;;;5.97;1.92;;;21.10;99.90;;;20.67;84.25;101448.97;4922723;28;20029;-76
2022/07/13 06:10:32;;;;;;;;;;;21.10;99.90;;;20.87;83.07;101449.25;4958747;28;20017;-76
2022/07/13 06:12:58;;;;;;;4.93;1.80;;;21.40;99.90;;;21.10;81.43;101445.59;4968530;28;20007;-77
2022/07/13 06:15:24;;;;;;;3.25;1.65;;;21.60;99.90;;;21.35;80.41;101456.16;4945198;28;20486;-76
2022/07/13 06:17:50;;;;;;;;;;;21.70;99.90;;;21.56;79.27;101457.13;4891094;28;20029;-76
2022/07/13 06:20:15;;;;;;;2.15;1.60;;;22.00;99.90;;;21.75;78.51;101447.56;4962904;28;19988;-76
2022/07/13 06:23:09;;;;;;;6.28;1.30;;;22.20;99.90;;;21.93;77.82;101456.78;4941197;28;20049;-77
2022/07/13 06:25:38;;;;;;;3.15;1.40;;;22.40;99.90;;;22.04;77.21;101458.56;4939078;28;20048;-76
2022/07/13 06:28:05;;;;;;;1.83;1.45;;;22.40;99.90;;;22.05;76.28;101455.75;4914908;28;20522;-77
2022/07/13 06:30:31;;;;;;;3.53;1.40;;;22.50;99.90;;;22.00;76.23;101454.44;4899097;28;20061;-77
2022/07/13 06:32:57;;;;;;;4.45;1.45;;;22.50;99.90;;;21.96;76.21;101463.72;4935688;28;20486;-76
2022/07/13 06:35:23;;;;;;;4.68;1.30;;;22.50;99.90;;;21.96;76.79;101455.66;4955500;28;20109;-76
2022/07/13 06:37:49;;;;;;;2.65;1.35;;;22.50;99.90;;;22.02;77.15;101457.84;4986149;28;20030;-77
2022/07/13 06:40:18;;;;;;;3.60;1.42;;;22.60;99.90;;;22.10;76.70;101456.22;4931331;28;20029;-76
2022/07/13 06:42:45;;;;;;;3.28;1.30;;;22.60;99.90;;;22.22;75.70;101445.44;4970969;28;20164;-79
2022/07/13 06:45:11;;;;;;;3.83;1.48;;;22.70;99.90;;;22.32;75.71;101460.66;4957614;28;20037;-78
2022/07/13 06:47:37;;;;;;;5.05;1.15;;;22.80;99.90;;;22.44;75.41;101458.78;4963657;28;20445;-76
2022/07/13 06:50:06;;;;;;;8.50;1.40;;;23.00;99.90;;;22.56;75.75;101451.47;4931003;28;20025;-78
2022/07/13 06:52:37;;;;;;;3.17;1.10;;;23.00;99.90;;;22.69;74.37;101452.13;4939622;28;20432;-78
2022/07/13 06:55:04;;;;;;;2.88;1.38;;;23.20;99.90;;;22.84;73.57;101444.56;4943204;28;20039;-76
2022/07/13 06:57:30;;;;;;;1.98;1.30;;;23.30;99.90;;;23.04;72.82;101450.91;4950409;28;20068;-78
2022/07/13 06:59:56;;;;;;;5.25;1.42;;;23.50;99.90;;;23.27;71.89;101448.03;4979527;28;20026;-78
2022/07/13 07:02:22;;;;;;;2.72;1.20;;;23.70;99.90;;;23.53;72.01;101448.38;4955622;28;20065;-79
2022/07/13 07:04:48;;;;;;;4.82;1.40;;;24.00;99.90;;;23.87;70.85;101453.41;4951493;28;20029;-78
2022/07/13 07:07:16;;;;;;;5.32;1.00;;;24.20;99.90;;;24.25;70.35;101449.84;4940864;28;20018;-77
2022/07/13 07:09:42;;;;;;;1.95;1.20;;;24.60;99.90;;;24.55;68.68;101439.91;4913799;28;20026;-78
2022/07/13 07:12:08;;;;;;;1.88;1.45;;;24.90;99.90;;;24.91;67.92;101450.88;4909065;28;20071;-78
2022/07/13 07:14:34;;;;;;;1.50;1.20;;;25.10;99.90;;;25.11;66.20;101449.78;4954618;28;20038;-77
2022/07/13 07:17:02;;;;;;;2.95;1.27;;;25.40;99.90;;;25.31;64.78;101444.31;4943951;28;20030;-79
2022/07/13 07:19:33;;;;;;;1.67;1.13;;;25.60;99.90;;;25.49;65.10;101447.91;4951189;28;20493;-79
2022/07/13 07:21:58;;;;;;;4.45;1.42;;;25.70;99.90;;;25.61;63.74;101443.13;4944620;28;20032;-77
2022/07/13 07:24:24;;;;;;;3.38;1.60;;;25.80;99.90;;;25.70;63.51;101442.25;4926181;28;20068;-77
2022/07/13 07:26:53;;;;;;;3.15;1.33;;;25.90;99.90;;;25.75;63.55;101439.09;4912480;28;20018;-79
2022/07/13 07:29:24;;;;;;;3.53;1.20;;;26.00;99.90;;;25.82;63.22;101437.47;4940673;28;20053;-78
2022/07/13 07:31:50;;;;;;;5.32;1.52;;;26.10;99.90;;;25.89;63.06;101441.25;4928412;28;20041;-79
2022/07/13 07:34:16;;;;;;;4.07;1.58;;;26.10;99.90;;;25.78;62.74;101436.06;4894517;28;20042;-79
2022/07/13 07:36:42;;;;;;;4.60;1.35;;;26.20;99.90;;;25.96;61.42;101436.97;4925385;28;20026;-78
2022/07/13 07:39:08;;;;;;;2.20;1.52;;;26.30;99.90;;;26.21;60.84;101447.09;4961197;28;20033;-78
2022/07/13 07:41:34;;;;;;;1.65;1.27;;;26.40;99.90;;;26.45;60.82;101436.47;4979859;28;20467;-78
2022/07/13 07:44:09;;;;;;;6.28;1.73;;;26.60;99.90;;;26.71;60.01;101432.97;4959833;28;20028;-78
2022/07/13 07:46:35;;;;;;;1.83;1.30;;;;;;;26.86;59.72;101435.91;4935922;28;20081;-78
2022/07/13 07:49:03;;;;;;;1.60;1.40;;;26.90;99.90;;;26.75;58.67;101427.06;4952043;28;20030;-78
2022/07/13 07:51:36;;;;;;;3.83;1.20;;;27.00;99.90;;;26.74;59.25;101430.81;4922931;28;20030;-78
2022/07/13 07:54:02;;;;;;;2.83;1.40;;;27.00;99.90;;;26.69;58.25;101424.19;4959854;28;20072;-78
2022/07/13 07:56:28;;;;;;;5.85;1.40;;;27.00;99.90;;;26.64;58.34;101413.84;4985856;28;20037;-78
2022/07/13 07:58:53;;;;;;;5.40;1.25;;;26.90;99.90;;;26.60;59.10;101417.88;4961509;28;20026;-79
2022/07/13 08:01:25;;;;;;;6.57;1.45;;;26.90;99.90;;;26.53;59.19;101417.63;4922309;28;20056;-78
2022/07/13 08:03:50;;;;;;;3.03;1.50;;;26.80;99.90;;;26.53;58.54;101414.09;4921668;28;20033;-78
2022/07/13 08:06:16;;;;;;;3.00;1.17;;;26.80;99.90;;;26.55;58.93;101414.78;4962066;28;20025;-78
2022/07/13 08:08:42;;;;;;;1.10;0.98;;;26.80;99.90;;;26.59;58.54;101411.63;4946543;28;20098;-77
2022/07/13 08:11:10;;;;;;;4.05;1.15;;;27.00;99.90;;;26.74;57.86;101417.28;4904824;28;20037;-77
2022/07/13 08:13:44;;;;;;;6.25;1.65;;;27.00;99.90;;;26.88;57.59;101415.84;4952069;28;20110;-78
2022/07/13 08:16:10;;;;;;;3.88;1.05;;;27.20;99.90;;;27.00;56.91;101408.31;4925295;28;20045;-78
2022/07/13 08:18:36;;;;;;;1.40;1.02;;;27.30;99.90;;;27.14;56.28;101421.19;4923494;28;20022;-77
2022/07/13 08:21:03;;;;;;;2.67;1.13;;;27.30;99.90;;;27.19;56.37;101429.66;4933397;28;20023;-78
2022/07/13 08:26:13;;;;;;;3.58;1.50;;;27.20;99.90;;;27.00;57.16;101425.34;4925878;28;20047;-78
2022/07/13 08:28:39;;;;;;;2.67;1.60;;;27.40;99.90;;;27.24;56.70;101421.09;4972859;28;20078;-78
2022/07/13 08:31:05;;;;;;;3.70;1.60;;;27.40;99.90;;;27.27;56.11;101418.03;4933070;28;20765;-78
2022/07/13 08:39:06;;;;;;;2.60;1.45;;;27.70;99.90;;;27.54;55.81;101414.22;4964960;28;21097;-78
2022/07/13 08:41:32;;;;;;;2.03;1.33;;;27.70;99.90;;;27.37;55.44;101407.09;4979476;28;20038;-78
2022/07/13 08:44:01;;;;;;;2.10;1.48;;;27.60;99.90;;;27.33;55.58;101411.97;4963816;28;20025;-78
2022/07/13 08:46:29;;;;;;;4.55;1.70;;;27.50;99.90;;;27.07;56.76;101412.03;4943024;28;20030;-78
2022/07/13 08:48:56;;;;;;;5.78;1.52;;;27.40;99.90;;;26.97;56.58;101411.31;4947717;28;20438;-78
2022/07/13 08:51:24;;;;;;;5.63;1.73;;;27.40;99.90;;;27.04;55.88;101415.06;4926374;28;20041;-78
2022/07/13 08:53:55;;;;;;;6.93;1.40;;;27.50;99.90;;;27.32;56.50;101417.53;4915211;28;20034;-78
2022/07/13 08:56:21;;;;;;;7.20;1.77;;;27.60;99.90;;;27.61;54.09;101423.38;4929830;28;20086;-78
2022/07/13 08:58:47;;;;;;;3.42;2.03;;;27.80;99.90;;;27.87;53.44;101418.88;4926440;28;20039;-78
2022/07/13 09:01:14;;;;;;;5.05;2.08;;;27.90;99.80;;;27.99;52.61;101421.06;4934527;28;20074;-78
2022/07/13 09:03:48;;;;;;;3.53;1.70;;;28.20;99.40;;;28.22;52.68;101425.78;4979321;28;20034;-79
2022/07/13 09:06:39;;;;;;;2.60;1.92;;;28.30;99.40;;;28.42;51.50;101420.84;4947479;28;20087;-78
2022/07/13 09:09:33;;;;;;;5.95;1.98;;;28.40;99.00;;;28.27;51.71;101415.28;4957302;28;21021;-78
2022/07/13 09:12:19;;;;;;;6.30;2.20;;;28.30;98.70;;;27.73;52.69;101412.22;4948849;28;20048;-78
2022/07/13 09:15:06;;;;;;;3.75;2.38;;;27.90;98.80;;;27.07;54.34;101412.03;4927028;28;20022;-77
2022/07/13 09:17:44;;;;;;;4.35;2.00;;;27.50;99.90;;;26.79;55.17;101414.09;4921558;28;20769;-78
2022/07/13 09:20:21;;;;;;;4.95;2.40;;;27.50;99.70;;;26.67;55.41;101394.63;4931459;28;20037;-79
2022/07/13 09:22:53;;;;;;;7.13;2.33;;;27.20;99.90;;;26.60;55.88;101401.69;4970337;28;20036;-77
2022/07/13 09:25:40;;;;;;;5.35;2.47;;;26.90;99.90;;;26.34;56.50;101401.66;4957211;28;20017;-79
2022/07/13 09:28:16;;;;;;;6.70;2.55;;;26.80;99.90;;;26.16;57.30;101415.19;4942526;28;20022;-78
2022/07/13 09:30:45;;;;;;;5.33;2.43;;;26.60;99.90;;;25.96;57.76;101412.69;4938592;28;20018;-79
2022/07/13 09:33:30;;;;;;;6.80;2.13;;;26.40;99.90;;;25.90;58.59;101415.16;4937790;28;20284;-78
2022/07/13 09:35:56;;;;;;;5.28;2.30;;;26.40;99.90;;;25.80;58.64;101409.78;4956800;28;20044;-78
2022/07/13 09:38:46;;;;;;;2.95;2.28;;;26.30;99.90;;;25.70;59.01;101401.78;4928616;28;20041;-78
2022/07/13 09:41:25;;;;;;;5.63;2.30;;;26.20;99.90;;;25.71;60.43;101406.16;4943107;28;20034;-77
2022/07/13 09:47:05;;;;;;;4.22;2.45;;;26.20;99.90;;;25.72;59.13;101399.78;4966073;28;20100;-78
2022/07/13 09:49:44;;;;;;;8.40;2.30;;;26.20;99.90;;;25.82;59.35;101398.84;4939731;28;20025;-78
2022/07/13 09:52:21;;;;;;;5.43;2.28;;;26.30;99.90;;;25.92;58.92;101405.91;4887201;28;20065;-78
2022/07/13 09:54:53;;;;;;;6.60;2.60;;;26.30;99.90;;;25.88;59.13;101401.81;4919552;28;20202;-78
2022/07/13 09:57:26;;;;;;;8.85;2.60;;;26.30;99.90;;;25.94;58.96;101400.31;4913380;28;20019;-79
2022/07/13 10:00:11;;;;;;;3.72;2.40;;;26.40;99.90;;;25.96;58.77;101407.28;4952871;28;20567;-78
2022/07/13 10:02:38;;;;;;;5.25;2.88;;;26.40;99.90;;;26.02;58.33;101388.75;4938210;28;20020;-79
2022/07/13 10:05:08;;;;;;;8.05;2.55;;;26.50;99.90;;;26.13;57.43;101385.81;4944487;28;20027;-77
2022/07/13 10:07:35;;;;;;;4.65;1.92;;;26.60;99.90;;;26.33;57.93;101378.38;4911609;28;20030;-77
2022/07/13 10:10:10;;;;;;;7.60;2.30;;;26.70;99.90;;;26.69;57.34;101367.44;4927530;28;20038;-78
2022/07/13 10:12:41;;;;;;;7.20;2.85;;;27.00;99.90;;;26.95;56.11;101372.78;4962640;28;20041;-78
2022/07/13 10:15:09;;;;;;;8.63;2.95;;;27.30;99.90;;;27.32;55.03;101358.94;4911760;28;20035;-78
2022/07/13 10:17:35;;;;;;;8.77;2.80;;;27.60;99.90;;;27.67;54.37;101365.06;4940758;28;20042;-78
2022/07/13 10:20:19;;;;;;;4.57;2.72;;;27.90;99.70;;;28.24;53.17;101369.63;4935885;28;20030;-78
2022/07/13 10:22:49;;;;;;;7.53;2.38;;;28.50;99.20;;;28.98;51.03;101363.97;4922365;28;20022;-78
2022/07/13 10:25:17;;;;;;;3.72;2.55;;;29.10;98.50;;;29.58;49.79;101362.44;4901004;28;20089;-78
2022/07/13 10:28:09;;;;;;;4.15;2.63;;;29.70;97.70;;;30.01;47.75;101362.78;4928918;28;20018;-79